Terminal Aerodrome Forecast
Issued by NWS Melbourne, FL

Home | Current Version | Previous Version | Text Only | Print | Product List | Glossary On
Versions: 1 2 3 4 5 6 7 8 9 10 11 12 13 14 15 16 17 18
583
FTUS42 KMLB 222334
TAFMLB
TAF
KMLB 222334Z 2300/2324 13008KT P6SM -SHRA SCT010 BKN070 OVC100
      TEMPO 2300/2303 3SM SHRA BR BKN015
     FM230300 16008KT P6SM -RA SCT012 BKN050 OVC100
      TEMPO 2303/2306 3SM SHRA BKN012 OVC020
     FM230600 26006KT P6SM VCSH SCT008 BKN015
      TEMPO 2309/2313 5SM BR
     FM231400 26007KT P6SM VCSH BKN020 BKN035
     FM231700 03011G19KT P6SM SCT015 BKN040=

USA.gov is the U.S. government's official web portal to all federal, state and local government web resources and services.